createdAt,value
2022-12-02T05:00:39.944Z,3.40
2022-12-02T05:04:51.376Z,3.41
2022-12-02T05:09:02.838Z,3.48
2022-12-02T05:13:14.371Z,3.53
2022-12-02T05:17:25.847Z,3.62
2022-12-02T05:21:37.288Z,3.59
2022-12-02T05:25:49.442Z,3.52
2022-12-02T05:30:00.903Z,3.44
2022-12-02T05:34:13.421Z,3.60
2022-12-02T05:38:24.836Z,3.54
2022-12-02T05:42:36.305Z,3.55
2022-12-02T05:46:48.340Z,3.54
2022-12-02T05:51:00.058Z,3.62
2022-12-02T05:55:15.397Z,3.55
2022-12-02T05:59:29.411Z,3.52
2022-12-02T06:03:40.925Z,3.54
2022-12-02T06:07:56.721Z,3.57
2022-12-02T06:12:15.584Z,3.53
2022-12-02T06:16:30.413Z,3.52
2022-12-02T06:20:42.641Z,3.46
2022-12-02T06:24:55.951Z,3.44
2022-12-02T06:29:15.802Z,3.49
2022-12-02T06:33:32.962Z,3.47
2022-12-02T06:37:44.402Z,3.56
2022-12-02T06:41:55.855Z,3.53
2022-12-02T06:46:20.134Z,3.45
2022-12-02T06:50:42.544Z,3.43
2022-12-02T06:54:54.810Z,3.51
2022-12-02T06:59:06.325Z,3.38
2022-12-02T07:03:33.229Z,3.39
2022-12-02T07:07:44.718Z,3.25
2022-12-02T07:11:59.277Z,3.45
2022-12-02T07:16:33.342Z,3.50
2022-12-02T07:20:46.499Z,3.46
2022-12-02T07:25:15.439Z,3.55
2022-12-02T07:29:30.595Z,3.91
2022-12-02T07:33:42.034Z,3.56
2022-12-02T07:37:54.036Z,3.53
2022-12-02T07:42:05.522Z,3.52
2022-12-02T07:46:17.048Z,3.51
2022-12-02T07:50:28.507Z,3.56
2022-12-02T07:54:39.985Z,3.51
2022-12-02T08:03:22.845Z,3.47
2022-12-02T08:07:34.330Z,3.51
2022-12-02T08:11:45.779Z,3.55
2022-12-02T08:15:57.193Z,3.44
2022-12-02T08:20:11.965Z,3.42
2022-12-02T08:24:23.406Z,3.41
2022-12-02T08:28:34.857Z,3.47
2022-12-02T08:32:46.550Z,3.44
2022-12-02T08:36:57.964Z,3.45
2022-12-02T08:41:13.791Z,3.44
2022-12-02T08:45:25.651Z,3.45
2022-12-02T08:49:37.095Z,3.68
2022-12-02T08:53:48.921Z,3.70
2022-12-02T08:58:00.461Z,3.70
2022-12-02T09:02:11.928Z,3.84
2022-12-02T09:06:23.638Z,3.84
2022-12-02T09:10:35.309Z,3.81
2022-12-02T09:14:46.783Z,3.87
2022-12-02T09:18:58.342Z,3.78
2022-12-02T09:23:10.025Z,3.70
2022-12-02T09:27:21.533Z,3.69
2022-12-02T09:31:33.075Z,3.76
2022-12-02T09:35:44.761Z,3.79
2022-12-02T09:39:56.211Z,3.78
2022-12-02T09:44:07.726Z,3.67
2022-12-02T09:48:19.181Z,3.61
2022-12-02T09:52:30.779Z,3.64
2022-12-02T09:56:42.236Z,3.50
2022-12-02T10:00:54.284Z,3.52
2022-12-02T10:05:24.544Z,3.56
2022-12-02T10:09:36.026Z,3.43
2022-12-02T10:13:47.575Z,3.53
2022-12-02T10:18:09.416Z,3.54
2022-12-02T10:22:22.160Z,3.58
2022-12-02T10:27:00.186Z,3.57
2022-12-02T10:31:22.583Z,3.59
2022-12-02T10:35:43.503Z,3.60
2022-12-02T10:40:18.693Z,3.61
2022-12-02T10:44:31.988Z,3.52
2022-12-02T10:48:43.425Z,3.53
2022-12-02T10:52:59.004Z,3.49
2022-12-02T10:57:13.848Z,3.61
2022-12-02T11:01:25.324Z,3.56
2022-12-02T11:05:37.680Z,3.53
2022-12-02T11:09:54.726Z,3.58
2022-12-02T11:14:53.416Z,3.43
2022-12-02T11:19:32.933Z,3.57
2022-12-02T11:23:44.378Z,3.49
2022-12-02T11:28:18.400Z,3.51
2022-12-02T11:32:29.773Z,3.52
2022-12-02T11:36:41.237Z,3.62
2022-12-02T11:40:52.584Z,3.55
2022-12-02T11:45:17.151Z,3.56
2022-12-02T11:49:33.366Z,3.69
2022-12-02T11:53:51.761Z,3.66
2022-12-02T11:58:04.131Z,3.62
2022-12-02T12:02:21.436Z,3.61
2022-12-02T12:06:35.297Z,3.56
2022-12-02T12:10:46.776Z,3.57
2022-12-02T12:15:04.890Z,3.54
2022-12-02T12:19:16.254Z,3.44
2022-12-02T12:23:34.435Z,3.47
2022-12-02T12:27:45.895Z,3.43
2022-12-02T12:31:57.677Z,3.41
2022-12-02T12:36:09.144Z,3.40
2022-12-02T12:40:20.587Z,3.38
2022-12-02T12:44:33.149Z,3.43
2022-12-02T12:48:44.838Z,3.42
2022-12-02T12:52:56.432Z,3.39
2022-12-02T12:57:08.067Z,3.30
2022-12-02T13:01:24.551Z,3.17
2022-12-02T13:05:36.660Z,3.30
2022-12-02T13:09:48.135Z,3.35
2022-12-02T13:14:00.834Z,3.30
2022-12-02T13:18:12.364Z,3.36
2022-12-02T13:22:23.811Z,3.32
2022-12-02T13:26:35.296Z,3.21
2022-12-02T13:30:46.877Z,3.28
2022-12-02T13:34:58.394Z,3.18
2022-12-02T13:39:11.521Z,3.08
2022-12-02T13:43:23.008Z,3.07
2022-12-02T13:47:34.450Z,2.93
2022-12-02T13:51:45.925Z,3.02
2022-12-02T13:55:57.441Z,2.94
2022-12-02T14:00:12.095Z,2.92
2022-12-02T14:04:26.509Z,2.95
2022-12-02T14:08:38.019Z,2.90
2022-12-02T14:12:49.506Z,2.82
2022-12-02T14:17:00.929Z,2.85
2022-12-02T14:21:12.551Z,2.83
2022-12-02T14:25:24.008Z,2.86
2022-12-02T14:29:35.481Z,2.79
2022-12-02T14:34:10.242Z,2.82
2022-12-02T14:38:18.442Z,2.70
2022-12-02T14:42:29.881Z,2.83
2022-12-02T14:46:46.819Z,2.68
2022-12-02T14:50:58.515Z,2.63
2022-12-02T14:55:10.067Z,2.50
2022-12-02T14:59:21.569Z,2.64
2022-12-02T15:03:33.016Z,2.56
2022-12-02T15:07:44.754Z,2.59
2022-12-02T15:11:57.588Z,2.56
2022-12-02T15:16:10.518Z,2.42
2022-12-02T15:20:23.766Z,2.45
2022-12-02T15:24:35.329Z,2.44
2022-12-02T15:28:46.967Z,2.41
2022-12-02T15:32:58.417Z,2.39
2022-12-02T15:37:09.887Z,2.36
2022-12-02T15:41:21.365Z,2.26
2022-12-02T15:45:32.840Z,2.24
2022-12-02T15:49:44.285Z,2.30
2022-12-02T15:53:55.718Z,2.34
2022-12-02T15:58:07.209Z,2.18
2022-12-02T16:02:18.743Z,2.31
2022-12-02T16:06:30.276Z,2.26
2022-12-02T16:10:41.886Z,2.24
2022-12-02T16:14:55.604Z,2.21
2022-12-02T16:19:07.549Z,2.21
2022-12-02T16:23:19.268Z,2.18
2022-12-02T16:27:30.834Z,2.24
2022-12-02T16:31:42.338Z,2.14
2022-12-02T16:35:53.852Z,2.11
2022-12-02T16:40:06.066Z,2.15
2022-12-02T16:49:56.613Z,2.21
2022-12-02T16:54:13.681Z,2.04
2022-12-02T16:58:52.411Z,2.14
2022-12-02T17:03:04.108Z,2.03
2022-12-02T17:07:16.904Z,2.01
2022-12-02T17:11:28.559Z,1.96
2022-12-02T17:15:40.336Z,2.04
2022-12-02T17:19:51.911Z,2.07
2022-12-02T17:24:03.588Z,1.97
2022-12-02T17:28:15.039Z,2.01
2022-12-02T17:32:26.506Z,1.92
2022-12-02T17:36:37.997Z,1.83
2022-12-02T17:40:49.430Z,1.95
2022-12-02T17:45:00.848Z,1.88
2022-12-02T17:49:12.317Z,1.89
2022-12-02T17:53:23.919Z,1.85
2022-12-02T17:57:35.778Z,1.79
2022-12-02T18:01:47.439Z,1.85
2022-12-02T18:05:58.970Z,1.77
2022-12-02T18:10:10.960Z,1.78
2022-12-02T18:14:22.420Z,1.76
2022-12-02T18:18:34.582Z,1.78
2022-12-02T18:22:46.055Z,1.85
2022-12-02T18:26:58.075Z,1.80
2022-12-02T18:31:09.545Z,1.83
2022-12-02T18:35:21.082Z,1.85
2022-12-02T18:39:32.533Z,1.78
2022-12-02T18:43:43.965Z,1.65
2022-12-02T18:47:55.397Z,1.70
2022-12-02T18:52:06.897Z,1.78
2022-12-02T18:56:23.840Z,1.75
2022-12-02T19:00:35.973Z,1.84
2022-12-02T19:04:49.447Z,1.78
2022-12-02T19:09:01.082Z,1.72
2022-12-02T19:13:12.581Z,1.76
2022-12-02T19:17:24.019Z,1.79
2022-12-02T19:21:35.490Z,1.71
2022-12-02T19:25:50.255Z,1.78
2022-12-02T19:30:02.133Z,1.72
2022-12-02T19:34:13.678Z,1.72
2022-12-02T19:38:25.184Z,1.77
2022-12-02T19:42:36.764Z,1.64
2022-12-02T19:46:48.427Z,1.71
2022-12-02T19:50:59.910Z,1.76
2022-12-02T19:55:15.482Z,1.77
2022-12-02T19:59:27.007Z,1.68
2022-12-02T20:03:38.737Z,1.69
2022-12-02T20:07:50.729Z,1.70
2022-12-02T20:12:02.323Z,1.71
2022-12-02T20:16:13.914Z,1.74
2022-12-02T20:20:25.527Z,1.76
2022-12-02T20:24:37.112Z,1.70
2022-12-02T20:28:48.597Z,1.65
2022-12-02T20:33:00.086Z,1.61
2022-12-02T20:37:11.775Z,1.70
2022-12-02T20:41:23.209Z,1.76
2022-12-02T20:45:34.807Z,1.80
2022-12-02T20:49:46.561Z,1.73
2022-12-02T20:53:58.064Z,1.66
2022-12-02T20:58:09.511Z,1.71
2022-12-02T21:02:21.082Z,1.64
2022-12-02T21:06:32.604Z,1.71
2022-12-02T21:10:44.090Z,1.58
2022-12-02T21:14:55.776Z,1.72
2022-12-02T21:19:07.638Z,1.67
2022-12-02T21:23:19.407Z,1.57
2022-12-02T21:27:30.872Z,1.58
2022-12-02T21:31:42.401Z,1.54
2022-12-02T21:35:53.904Z,1.53
2022-12-02T21:40:06.201Z,1.61
2022-12-02T21:44:18.247Z,1.48
2022-12-02T21:48:29.789Z,1.50
2022-12-02T21:52:41.294Z,1.50
2022-12-02T21:56:52.812Z,1.42
2022-12-02T22:01:23.443Z,1.46
2022-12-02T22:05:34.926Z,1.42
2022-12-02T22:09:46.574Z,1.39
2022-12-02T22:13:58.386Z,1.29
2022-12-02T22:18:09.812Z,1.27
2022-12-02T22:22:21.312Z,1.31
2022-12-02T22:26:32.782Z,1.33
